sensor_id;sensor_type;location;lat;lon;timestamp;pressure;altitude;pressure_sealevel;temperature;humidity
11017;BME280;54687;50.800;6.772;2023-03-16T00:00:31;61180.97;;;-144.06;60.60
11017;BME280;54687;50.800;6.772;2023-03-16T00:02:57;61193.53;;;-144.06;60.72
11017;BME280;54687;50.800;6.772;2023-03-16T00:05:24;61151.59;;;-144.06;60.36
11017;BME280;54687;50.800;6.772;2023-03-16T00:07:50;61212.41;;;-144.06;59.94
11017;BME280;54687;50.800;6.772;2023-03-16T00:10:17;61206.09;;;-144.06;60.02
11017;BME280;54687;50.800;6.772;2023-03-16T00:12:45;61174.66;;;-144.06;60.01
11017;BME280;54687;50.800;6.772;2023-03-16T00:15:11;61176.75;;;-144.06;59.63
11017;BME280;54687;50.800;6.772;2023-03-16T00:17:38;61178.84;;;-144.06;59.66
11017;BME280;54687;50.800;6.772;2023-03-16T00:20:05;61172.56;;;-144.06;59.95
11017;BME280;54687;50.800;6.772;2023-03-16T00:22:32;61201.91;;;-144.06;59.82
11017;BME280;54687;50.800;6.772;2023-03-16T00:24:59;61139.03;;;-144.06;59.43
11017;BME280;54687;50.800;6.772;2023-03-16T00:27:26;61168.38;;;-144.06;59.51
11017;BME280;54687;50.800;6.772;2023-03-16T00:29:54;61189.34;;;-144.06;59.58
11017;BME280;54687;50.800;6.772;2023-03-16T00:32:23;61174.66;;;-144.06;59.14
11017;BME280;54687;50.800;6.772;2023-03-16T00:34:49;61227.06;;;-144.06;59.33
11017;BME280;54687;50.800;6.772;2023-03-16T00:37:18;61185.16;;;-144.06;59.27
11017;BME280;54687;50.800;6.772;2023-03-16T00:39:45;61191.44;;;-144.06;58.94
11017;BME280;54687;50.800;6.772;2023-03-16T00:42:13;61201.91;;;-144.06;58.96
11017;BME280;54687;50.800;6.772;2023-03-16T00:44:40;61201.91;;;-144.06;59.01
11017;BME280;54687;50.800;6.772;2023-03-16T00:47:09;61180.97;;;-144.06;58.91
11017;BME280;54687;50.800;6.772;2023-03-16T00:49:39;61185.16;;;-144.06;58.42
11017;BME280;54687;50.800;6.772;2023-03-16T00:52:08;61176.75;;;-144.06;58.67
11017;BME280;54687;50.800;6.772;2023-03-16T00:54:39;61160.00;;;-144.06;58.20
11017;BME280;54687;50.800;6.772;2023-03-16T00:57:07;61174.66;;;-144.06;58.29
11017;BME280;54687;50.800;6.772;2023-03-16T00:59:34;61193.53;;;-144.06;58.28
11017;BME280;54687;50.800;6.772;2023-03-16T01:02:02;61201.91;;;-144.06;58.44
11017;BME280;54687;50.800;6.772;2023-03-16T01:04:31;61193.53;;;-144.06;58.50
11017;BME280;54687;50.800;6.772;2023-03-16T01:06:58;61222.88;;;-144.06;58.58
11017;BME280;54687;50.800;6.772;2023-03-16T01:09:25;61206.09;;;-144.06;58.27
11017;BME280;54687;50.800;6.772;2023-03-16T01:11:51;61168.38;;;-144.06;58.42
11017;BME280;54687;50.800;6.772;2023-03-16T01:14:19;61178.84;;;-144.06;58.15
11017;BME280;54687;50.800;6.772;2023-03-16T01:16:46;61187.25;;;-144.06;58.30
11017;BME280;54687;50.800;6.772;2023-03-16T01:19:13;61189.34;;;-144.06;58.17
11017;BME280;54687;50.800;6.772;2023-03-16T01:21:41;61193.53;;;-144.06;58.20
11017;BME280;54687;50.800;6.772;2023-03-16T01:24:08;61168.38;;;-144.06;58.42
11017;BME280;54687;50.800;6.772;2023-03-16T01:26:35;61193.53;;;-144.06;58.63
11017;BME280;54687;50.800;6.772;2023-03-16T01:29:01;61204.00;;;-144.06;58.42
11017;BME280;54687;50.800;6.772;2023-03-16T01:31:28;61170.47;;;-144.06;58.29
11017;BME280;54687;50.800;6.772;2023-03-16T01:33:56;61180.97;;;-144.06;58.17
11017;BME280;54687;50.800;6.772;2023-03-16T01:36:22;61168.38;;;-144.06;58.44
11017;BME280;54687;50.800;6.772;2023-03-16T01:38:50;61185.16;;;-144.06;58.39
11017;BME280;54687;50.800;6.772;2023-03-16T01:41:17;61183.06;;;-144.06;58.24
11017;BME280;54687;50.800;6.772;2023-03-16T01:43:43;61185.16;;;-144.06;58.04
11017;BME280;54687;50.800;6.772;2023-03-16T01:46:18;61185.16;;;-144.06;58.48
11017;BME280;54687;50.800;6.772;2023-03-16T01:49:05;61162.09;;;-144.06;58.53
11017;BME280;54687;50.800;6.772;2023-03-16T01:51:36;61168.38;;;-144.06;58.25
11017;BME280;54687;50.800;6.772;2023-03-16T01:54:12;61147.41;;;-144.06;58.18
11017;BME280;54687;50.800;6.772;2023-03-16T01:56:43;61157.91;;;-144.06;58.15
11017;BME280;54687;50.800;6.772;2023-03-16T01:59:13;61199.81;;;-144.06;58.30
11017;BME280;54687;50.800;6.772;2023-03-16T02:01:41;61185.16;;;-144.06;58.44
11017;BME280;54687;50.800;6.772;2023-03-16T02:04:16;61199.81;;;-144.06;58.30
11017;BME280;54687;50.800;6.772;2023-03-16T02:06:47;61201.91;;;-144.06;58.27
11017;BME280;54687;50.800;6.772;2023-03-16T02:09:17;61176.75;;;-144.06;58.28
11017;BME280;54687;50.800;6.772;2023-03-16T02:11:45;61176.75;;;-144.06;57.85
11017;BME280;54687;50.800;6.772;2023-03-16T02:14:12;61180.97;;;-144.06;57.97
11017;BME280;54687;50.800;6.772;2023-03-16T02:16:39;61157.91;;;-144.06;58.02
11017;BME280;54687;50.800;6.772;2023-03-16T02:19:11;61191.44;;;-144.06;57.87
11017;BME280;54687;50.800;6.772;2023-03-16T02:21:44;61176.75;;;-144.06;58.06
11017;BME280;54687;50.800;6.772;2023-03-16T02:24:12;61187.25;;;-144.06;58.04
11017;BME280;54687;50.800;6.772;2023-03-16T02:26:44;61151.59;;;-144.06;57.81
11017;BME280;54687;50.800;6.772;2023-03-16T02:29:19;61157.91;;;-144.06;57.98
11017;BME280;54687;50.800;6.772;2023-03-16T02:31:52;61199.81;;;-144.06;58.02
11017;BME280;54687;50.800;6.772;2023-03-16T02:34:19;61172.56;;;-144.06;58.08
11017;BME280;54687;50.800;6.772;2023-03-16T02:36:46;61180.97;;;-144.06;57.63
11017;BME280;54687;50.800;6.772;2023-03-16T02:39:16;61174.66;;;-144.06;57.67
11017;BME280;54687;50.800;6.772;2023-03-16T02:41:43;61176.75;;;-144.06;57.56
11017;BME280;54687;50.800;6.772;2023-03-16T02:44:12;61187.25;;;-144.06;57.71
11017;BME280;54687;50.800;6.772;2023-03-16T02:46:41;61147.41;;;-144.06;57.54
11017;BME280;54687;50.800;6.772;2023-03-16T02:49:11;61139.03;;;-144.06;57.90
11017;BME280;54687;50.800;6.772;2023-03-16T02:51:41;61231.25;;;-144.06;57.49
11017;BME280;54687;50.800;6.772;2023-03-16T02:54:07;61164.19;;;-144.06;57.84
11017;BME280;54687;50.800;6.772;2023-03-16T02:56:34;61187.25;;;-144.06;57.57
11017;BME280;54687;50.800;6.772;2023-03-16T02:59:01;61187.25;;;-144.06;57.81
11017;BME280;54687;50.800;6.772;2023-03-16T03:01:27;61147.41;;;-144.06;57.67
11017;BME280;54687;50.800;6.772;2023-03-16T03:03:54;61229.16;;;-144.06;57.86
11017;BME280;54687;50.800;6.772;2023-03-16T03:06:22;61218.69;;;-144.06;57.59
11017;BME280;54687;50.800;6.772;2023-03-16T03:08:49;61218.69;;;-144.06;57.75
11017;BME280;54687;50.800;6.772;2023-03-16T03:11:16;61197.72;;;-144.06;57.74
11017;BME280;54687;50.800;6.772;2023-03-16T03:13:43;61214.50;;;-144.06;57.57
11017;BME280;54687;50.800;6.772;2023-03-16T03:16:11;61176.75;;;-144.06;58.08
11017;BME280;54687;50.800;6.772;2023-03-16T03:18:37;61166.28;;;-144.06;57.62
11017;BME280;54687;50.800;6.772;2023-03-16T03:21:04;61151.59;;;-144.06;57.88
11017;BME280;54687;50.800;6.772;2023-03-16T03:23:32;61168.38;;;-144.06;57.63
11017;BME280;54687;50.800;6.772;2023-03-16T03:26:00;61141.13;;;-144.06;58.09
11017;BME280;54687;50.800;6.772;2023-03-16T03:28:29;61164.19;;;-144.06;57.95
11017;BME280;54687;50.800;6.772;2023-03-16T03:30:59;61195.63;;;-144.06;57.86
11017;BME280;54687;50.800;6.772;2023-03-16T03:33:26;61164.19;;;-144.06;58.25
11017;BME280;54687;50.800;6.772;2023-03-16T03:35:53;61176.75;;;-144.06;58.22
11017;BME280;54687;50.800;6.772;2023-03-16T03:38:20;61170.47;;;-144.06;58.17
11017;BME280;54687;50.800;6.772;2023-03-16T03:40:49;61168.38;;;-144.06;58.04
11017;BME280;54687;50.800;6.772;2023-03-16T03:43:16;61132.75;;;-144.06;58.19
11017;BME280;54687;50.800;6.772;2023-03-16T03:45:42;61176.75;;;-144.06;57.88
11017;BME280;54687;50.800;6.772;2023-03-16T03:48:09;61176.75;;;-144.06;58.13
11017;BME280;54687;50.800;6.772;2023-03-16T03:50:36;61168.38;;;-144.06;58.01
11017;BME280;54687;50.800;6.772;2023-03-16T03:53:05;61185.16;;;-144.06;57.95
11017;BME280;54687;50.800;6.772;2023-03-16T03:55:31;61199.81;;;-144.06;58.16
11017;BME280;54687;50.800;6.772;2023-03-16T03:57:59;61168.38;;;-144.06;57.69
11017;BME280;54687;50.800;6.772;2023-03-16T04:00:26;61172.56;;;-144.06;58.10
11017;BME280;54687;50.800;6.772;2023-03-16T04:02:52;61201.91;;;-144.06;58.10
11017;BME280;54687;50.800;6.772;2023-03-16T04:05:19;61155.81;;;-144.06;57.93
11017;BME280;54687;50.800;6.772;2023-03-16T04:07:46;61151.59;;;-144.06;58.44
11017;BME280;54687;50.800;6.772;2023-03-16T04:10:15;61204.00;;;-144.06;57.91
11017;BME280;54687;50.800;6.772;2023-03-16T04:12:41;61185.16;;;-144.06;58.06
11017;BME280;54687;50.800;6.772;2023-03-16T04:15:10;61147.41;;;-144.06;57.91
11017;BME280;54687;50.800;6.772;2023-03-16T04:17:37;61168.38;;;-144.06;57.66
11017;BME280;54687;50.800;6.772;2023-03-16T04:20:04;61160.00;;;-144.06;58.35
11017;BME280;54687;50.800;6.772;2023-03-16T04:22:35;61218.69;;;-144.06;58.49
11017;BME280;54687;50.800;6.772;2023-03-16T04:25:02;61170.47;;;-144.06;58.03
11017;BME280;54687;50.800;6.772;2023-03-16T04:27:29;61147.41;;;-144.06;58.30
11017;BME280;54687;50.800;6.772;2023-03-16T04:30:00;61168.38;;;-144.06;58.10
11017;BME280;54687;50.800;6.772;2023-03-16T04:32:28;61145.31;;;-144.06;57.98
11017;BME280;54687;50.800;6.772;2023-03-16T04:34:56;61176.75;;;-144.06;58.18
11017;BME280;54687;50.800;6.772;2023-03-16T04:37:23;61189.34;;;-144.06;58.12
11017;BME280;54687;50.800;6.772;2023-03-16T04:39:49;61160.00;;;-144.06;58.34
11017;BME280;54687;50.800;6.772;2023-03-16T04:42:16;61168.38;;;-144.06;58.07
11017;BME280;54687;50.800;6.772;2023-03-16T04:44:43;61172.56;;;-144.06;58.03
11017;BME280;54687;50.800;6.772;2023-03-16T04:47:10;61164.19;;;-144.06;58.08
11017;BME280;54687;50.800;6.772;2023-03-16T04:49:38;61172.56;;;-144.06;58.32
11017;BME280;54687;50.800;6.772;2023-03-16T04:52:05;61151.59;;;-144.06;57.70
11017;BME280;54687;50.800;6.772;2023-03-16T04:54:32;61193.53;;;-144.06;57.77
11017;BME280;54687;50.800;6.772;2023-03-16T04:56:59;61178.84;;;-144.06;57.66
11017;BME280;54687;50.800;6.772;2023-03-16T04:59:28;61143.22;;;-144.06;57.91
11017;BME280;54687;50.800;6.772;2023-03-16T05:01:54;61176.75;;;-144.06;58.20
11017;BME280;54687;50.800;6.772;2023-03-16T05:04:21;61187.25;;;-144.06;57.87
11017;BME280;54687;50.800;6.772;2023-03-16T05:06:50;61193.53;;;-144.06;57.83
11017;BME280;54687;50.800;6.772;2023-03-16T05:09:17;61153.69;;;-144.06;58.23
11017;BME280;54687;50.800;6.772;2023-03-16T05:11:45;61157.91;;;-144.06;58.32
11017;BME280;54687;50.800;6.772;2023-03-16T05:14:11;61183.06;;;-144.06;58.34
11017;BME280;54687;50.800;6.772;2023-03-16T05:16:38;61197.72;;;-144.06;58.39
11017;BME280;54687;50.800;6.772;2023-03-16T05:19:04;61208.22;;;-144.06;58.13
11017;BME280;54687;50.800;6.772;2023-03-16T05:21:31;61195.63;;;-144.06;58.58
11017;BME280;54687;50.800;6.772;2023-03-16T05:23:59;61147.41;;;-144.06;58.92
11017;BME280;54687;50.800;6.772;2023-03-16T05:26:26;61176.75;;;-144.06;58.15
11017;BME280;54687;50.800;6.772;2023-03-16T05:28:53;61218.69;;;-144.06;58.54
11017;BME280;54687;50.800;6.772;2023-03-16T05:31:19;61193.53;;;-144.06;58.54
11017;BME280;54687;50.800;6.772;2023-03-16T05:33:47;61185.16;;;-144.06;58.52
11017;BME280;54687;50.800;6.772;2023-03-16T05:36:14;61174.66;;;-144.06;58.81
11017;BME280;54687;50.800;6.772;2023-03-16T05:38:41;61134.84;;;-144.06;58.86
11017;BME280;54687;50.800;6.772;2023-03-16T05:41:09;61172.56;;;-144.06;59.21
11017;BME280;54687;50.800;6.772;2023-03-16T05:43:36;61176.75;;;-144.06;58.81
11017;BME280;54687;50.800;6.772;2023-03-16T05:46:03;61157.91;;;-144.06;59.15
11017;BME280;54687;50.800;6.772;2023-03-16T05:48:29;61189.34;;;-144.06;58.88
11017;BME280;54687;50.800;6.772;2023-03-16T05:50:56;61132.75;;;-144.06;59.50
11017;BME280;54687;50.800;6.772;2023-03-16T05:53:22;61176.75;;;-144.06;59.60
11017;BME280;54687;50.800;6.772;2023-03-16T05:55:53;61214.50;;;-144.06;59.10
11017;BME280;54687;50.800;6.772;2023-03-16T05:58:21;61164.19;;;-144.06;59.53
11017;BME280;54687;50.800;6.772;2023-03-16T06:00:47;61155.81;;;-144.06;58.73
11017;BME280;54687;50.800;6.772;2023-03-16T06:03:14;61164.19;;;-144.06;59.02
11017;BME280;54687;50.800;6.772;2023-03-16T06:05:41;61172.56;;;-144.06;59.30
11017;BME280;54687;50.800;6.772;2023-03-16T06:08:08;61174.66;;;-144.06;58.66
11017;BME280;54687;50.800;6.772;2023-03-16T06:10:34;61160.00;;;-144.06;58.57
11017;BME280;54687;50.800;6.772;2023-03-16T06:13:01;61189.34;;;-144.06;59.00
11017;BME280;54687;50.800;6.772;2023-03-16T06:15:29;61153.69;;;-144.06;58.57
11017;BME280;54687;50.800;6.772;2023-03-16T06:17:56;61174.66;;;-144.06;58.13
11017;BME280;54687;50.800;6.772;2023-03-16T06:20:22;61199.81;;;-144.06;58.01
11017;BME280;54687;50.800;6.772;2023-03-16T06:22:49;61166.28;;;-144.06;57.62
11017;BME280;54687;50.800;6.772;2023-03-16T06:25:16;61193.53;;;-144.06;56.97
11017;BME280;54687;50.800;6.772;2023-03-16T06:27:43;61176.75;;;-144.06;56.97
11017;BME280;54687;50.800;6.772;2023-03-16T06:30:11;61208.22;;;-144.06;56.95
11017;BME280;54687;50.800;6.772;2023-03-16T06:32:41;61185.16;;;-144.06;56.72
11017;BME280;54687;50.800;6.772;2023-03-16T06:35:10;61172.56;;;-144.06;56.16
11017;BME280;54687;50.800;6.772;2023-03-16T06:37:37;61178.84;;;-144.06;56.51
11017;BME280;54687;50.800;6.772;2023-03-16T06:40:05;61185.16;;;-144.06;56.08
11017;BME280;54687;50.800;6.772;2023-03-16T06:42:33;61212.41;;;-144.06;55.65
11017;BME280;54687;50.800;6.772;2023-03-16T06:45:00;61214.50;;;-144.06;55.74
11017;BME280;54687;50.800;6.772;2023-03-16T06:47:28;61160.00;;;-144.06;55.55
11017;BME280;54687;50.800;6.772;2023-03-16T06:49:57;61155.81;;;-144.06;55.55
11017;BME280;54687;50.800;6.772;2023-03-16T06:52:23;61155.81;;;-144.06;55.30
11017;BME280;54687;50.800;6.772;2023-03-16T06:54:50;61151.59;;;-144.06;55.18
11017;BME280;54687;50.800;6.772;2023-03-16T06:57:16;61185.16;;;-144.06;54.87
11017;BME280;54687;50.800;6.772;2023-03-16T06:59:43;61180.97;;;-144.06;54.62
11017;BME280;54687;50.800;6.772;2023-03-16T07:02:10;61185.16;;;-144.06;54.39
11017;BME280;54687;50.800;6.772;2023-03-16T07:04:38;61155.81;;;-144.06;54.33
11017;BME280;54687;50.800;6.772;2023-03-16T07:07:07;61155.81;;;-144.06;54.16
11017;BME280;54687;50.800;6.772;2023-03-16T07:09:34;61160.00;;;-144.06;53.96
11017;BME280;54687;50.800;6.772;2023-03-16T07:12:01;61160.00;;;-144.06;53.63
11017;BME280;54687;50.800;6.772;2023-03-16T07:14:28;61178.84;;;-144.06;53.49
11017;BME280;54687;50.800;6.772;2023-03-16T07:16:55;61172.56;;;-144.06;53.53
11017;BME280;54687;50.800;6.772;2023-03-16T07:19:21;61162.09;;;-144.06;53.46
11017;BME280;54687;50.800;6.772;2023-03-16T07:21:48;61176.75;;;-144.06;53.00
11017;BME280;54687;50.800;6.772;2023-03-16T07:24:17;61147.41;;;-144.06;52.74
11017;BME280;54687;50.800;6.772;2023-03-16T07:26:43;61193.53;;;-144.06;52.61
11017;BME280;54687;50.800;6.772;2023-03-16T07:29:10;61143.22;;;-144.06;52.14
11017;BME280;54687;50.800;6.772;2023-03-16T07:31:38;61164.19;;;-144.06;51.80
11017;BME280;54687;50.800;6.772;2023-03-16T07:34:05;61128.53;;;-144.06;51.93
11017;BME280;54687;50.800;6.772;2023-03-16T07:36:32;61132.75;;;-144.06;51.44
11017;BME280;54687;50.800;6.772;2023-03-16T07:38:58;61147.41;;;-144.06;51.29
11017;BME280;54687;50.800;6.772;2023-03-16T07:41:26;61143.22;;;-144.06;50.96
11017;BME280;54687;50.800;6.772;2023-03-16T07:43:54;61155.81;;;-144.06;51.14
11017;BME280;54687;50.800;6.772;2023-03-16T07:46:22;61122.25;;;-144.06;50.99
11017;BME280;54687;50.800;6.772;2023-03-16T07:48:49;61134.84;;;-144.06;50.75
11017;BME280;54687;50.800;6.772;2023-03-16T07:51:16;61124.34;;;-144.06;50.82
11017;BME280;54687;50.800;6.772;2023-03-16T07:53:42;61168.38;;;-144.06;50.85
11017;BME280;54687;50.800;6.772;2023-03-16T07:56:09;61164.19;;;-144.06;50.37
11017;BME280;54687;50.800;6.772;2023-03-16T07:58:38;61147.41;;;-144.06;50.62
11017;BME280;54687;50.800;6.772;2023-03-16T08:01:06;61145.31;;;-144.06;50.97
11017;BME280;54687;50.800;6.772;2023-03-16T08:03:33;61172.56;;;-144.06;50.84
11017;BME280;54687;50.800;6.772;2023-03-16T08:06:00;61160.00;;;-144.06;50.39
11017;BME280;54687;50.800;6.772;2023-03-16T08:08:27;61147.41;;;-144.06;50.46
11017;BME280;54687;50.800;6.772;2023-03-16T08:10:53;61132.75;;;-144.06;50.49
11017;BME280;54687;50.800;6.772;2023-03-16T08:13:20;61155.81;;;-144.06;50.36
11017;BME280;54687;50.800;6.772;2023-03-16T08:15:50;61118.06;;;-144.06;50.60
11017;BME280;54687;50.800;6.772;2023-03-16T08:18:24;61120.16;;;-144.06;50.58
11017;BME280;54687;50.800;6.772;2023-03-16T08:20:51;61139.03;;;-144.06;50.35
11017;BME280;54687;50.800;6.772;2023-03-16T08:23:17;61134.84;;;-144.06;50.07
11017;BME280;54687;50.800;6.772;2023-03-16T08:25:44;61134.84;;;-144.06;49.97
11017;BME280;54687;50.800;6.772;2023-03-16T08:28:14;61166.28;;;-144.06;49.47
11017;BME280;54687;50.800;6.772;2023-03-16T08:30:45;61134.84;;;-144.06;49.48
11017;BME280;54687;50.800;6.772;2023-03-16T08:33:13;61153.69;;;-144.06;49.01
11017;BME280;54687;50.800;6.772;2023-03-16T08:35:42;61126.44;;;-144.06;48.87
11017;BME280;54687;50.800;6.772;2023-03-16T08:38:09;61141.13;;;-144.06;48.32
11017;BME280;54687;50.800;6.772;2023-03-16T08:40:36;61095.00;;;-144.06;48.64
11017;BME280;54687;50.800;6.772;2023-03-16T08:43:03;61115.97;;;-144.06;48.63
11017;BME280;54687;50.800;6.772;2023-03-16T08:45:29;61130.66;;;-144.06;48.32
11017;BME280;54687;50.800;6.772;2023-03-16T08:47:57;61166.28;;;-144.06;48.14
11017;BME280;54687;50.800;6.772;2023-03-16T08:50:25;61105.50;;;-144.06;48.16
11017;BME280;54687;50.800;6.772;2023-03-16T08:52:52;61139.03;;;-144.06;47.58
11017;BME280;54687;50.800;6.772;2023-03-16T08:55:18;61126.44;;;-144.06;47.46
11017;BME280;54687;50.800;6.772;2023-03-16T08:57:45;61095.00;;;-144.06;47.18
11017;BME280;54687;50.800;6.772;2023-03-16T09:00:13;61134.84;;;-144.06;46.97
11017;BME280;54687;50.800;6.772;2023-03-16T09:02:41;61076.13;;;-144.06;45.91
11017;BME280;54687;50.800;6.772;2023-03-16T09:05:09;61097.09;;;-144.06;45.63
11017;BME280;54687;50.800;6.772;2023-03-16T09:07:38;61134.84;;;-144.06;45.15
11017;BME280;54687;50.800;6.772;2023-03-16T09:10:05;61084.53;;;-144.06;44.99
11017;BME280;54687;50.800;6.772;2023-03-16T09:12:34;61090.81;;;-144.06;44.75
11017;BME280;54687;50.800;6.772;2023-03-16T09:15:01;61124.34;;;-144.06;44.25
11017;BME280;54687;50.800;6.772;2023-03-16T09:17:28;61082.44;;;-144.06;44.64
11017;BME280;54687;50.800;6.772;2023-03-16T09:19:54;61124.34;;;-144.06;43.85
11017;BME280;54687;50.800;6.772;2023-03-16T09:22:21;61080.34;;;-144.06;43.40
11017;BME280;54687;50.800;6.772;2023-03-16T09:24:50;61126.44;;;-144.06;42.96
11017;BME280;54687;50.800;6.772;2023-03-16T09:27:17;61044.69;;;-144.06;42.80
11017;BME280;54687;50.800;6.772;2023-03-16T09:29:45;61084.53;;;-144.06;42.68
11017;BME280;54687;50.800;6.772;2023-03-16T09:32:12;61126.44;;;-144.06;42.94
11017;BME280;54687;50.800;6.772;2023-03-16T09:34:40;61076.13;;;-144.06;42.81
11017;BME280;54687;50.800;6.772;2023-03-16T09:37:06;61080.34;;;-144.06;42.84
11017;BME280;54687;50.800;6.772;2023-03-16T09:39:33;61088.72;;;-144.06;42.35
11017;BME280;54687;50.800;6.772;2023-03-16T09:42:07;61082.44;;;-144.06;42.68
11017;BME280;54687;50.800;6.772;2023-03-16T09:44:42;61067.75;;;-144.06;42.83
11017;BME280;54687;50.800;6.772;2023-03-16T09:47:12;61063.56;;;-144.06;42.87
11017;BME280;54687;50.800;6.772;2023-03-16T09:49:42;61034.22;;;-144.06;42.12
11017;BME280;54687;50.800;6.772;2023-03-16T09:52:19;61080.34;;;-144.06;42.38
11017;BME280;54687;50.800;6.772;2023-03-16T09:54:52;61080.34;;;-144.06;42.31
11017;BME280;54687;50.800;6.772;2023-03-16T09:57:26;61046.78;;;-144.06;42.04
11017;BME280;54687;50.800;6.772;2023-03-16T09:59:53;61092.91;;;-144.06;42.33
11017;BME280;54687;50.800;6.772;2023-03-16T10:02:42;61105.50;;;-144.06;41.87
11017;BME280;54687;50.800;6.772;2023-03-16T10:05:12;61069.84;;;-144.06;42.51
11017;BME280;54687;50.800;6.772;2023-03-16T10:07:45;61084.53;;;-144.06;42.17
11017;BME280;54687;50.800;6.772;2023-03-16T10:10:23;61097.09;;;-144.06;42.41
11017;BME280;54687;50.800;6.772;2023-03-16T10:12:58;61076.13;;;-144.06;42.01
11017;BME280;54687;50.800;6.772;2023-03-16T10:15:31;61032.13;;;-144.06;42.29
11017;BME280;54687;50.800;6.772;2023-03-16T10:18:02;61034.22;;;-144.06;42.73
11017;BME280;54687;50.800;6.772;2023-03-16T10:20:33;61067.75;;;-144.06;42.86
11017;BME280;54687;50.800;6.772;2023-03-16T10:23:07;61067.75;;;-144.06;42.43
11017;BME280;54687;50.800;6.772;2023-03-16T10:25:43;61067.75;;;-144.06;42.83
11017;BME280;54687;50.800;6.772;2023-03-16T10:28:15;61038.41;;;-144.06;42.39
11017;BME280;54687;50.800;6.772;2023-03-16T10:30:42;61046.78;;;-144.06;42.79
11017;BME280;54687;50.800;6.772;2023-03-16T10:33:20;61036.31;;;-144.06;42.73
11017;BME280;54687;50.800;6.772;2023-03-16T10:35:52;61076.13;;;-144.06;42.91
11017;BME280;54687;50.800;6.772;2023-03-16T10:38:33;61103.38;;;-144.06;42.29
11017;BME280;54687;50.800;6.772;2023-03-16T10:41:05;61046.78;;;-144.06;42.33
11017;BME280;54687;50.800;6.772;2023-03-16T10:43:45;61059.38;;;-144.06;41.94
11017;BME280;54687;50.800;6.772;2023-03-16T10:46:14;61032.13;;;-144.06;41.47
11017;BME280;54687;50.800;6.772;2023-03-16T10:48:40;61067.75;;;-144.06;41.58
11017;BME280;54687;50.800;6.772;2023-03-16T10:51:11;61021.63;;;-144.06;41.13
11017;BME280;54687;50.800;6.772;2023-03-16T10:53:41;61044.69;;;-144.06;41.99
11017;BME280;54687;50.800;6.772;2023-03-16T10:56:10;61027.94;;;-144.06;41.52
11017;BME280;54687;50.800;6.772;2023-03-16T10:58:40;61032.13;;;-144.06;42.27
11017;BME280;54687;50.800;6.772;2023-03-16T11:01:16;61084.53;;;-144.06;42.17
11017;BME280;54687;50.800;6.772;2023-03-16T11:03:47;61055.19;;;-144.06;42.65
11017;BME280;54687;50.800;6.772;2023-03-16T11:06:20;61090.81;;;-144.06;42.61
11017;BME280;54687;50.800;6.772;2023-03-16T11:08:50;61038.41;;;-144.06;42.78
11017;BME280;54687;50.800;6.772;2023-03-16T11:11:21;61046.78;;;-144.06;42.11
11017;BME280;54687;50.800;6.772;2023-03-16T11:13:56;61071.94;;;-144.06;42.82
11017;BME280;54687;50.800;6.772;2023-03-16T11:16:29;61076.13;;;-144.06;42.93
11017;BME280;54687;50.800;6.772;2023-03-16T11:19:01;61061.47;;;-144.06;43.20
11017;BME280;54687;50.800;6.772;2023-03-16T11:21:37;61036.31;;;-144.06;42.70
11017;BME280;54687;50.800;6.772;2023-03-16T11:24:14;61097.09;;;-144.06;43.21
11017;BME280;54687;50.800;6.772;2023-03-16T11:26:43;61038.41;;;-144.06;43.01
11017;BME280;54687;50.800;6.772;2023-03-16T11:29:15;61044.69;;;-144.06;43.55
11017;BME280;54687;50.800;6.772;2023-03-16T11:31:47;61076.13;;;-144.06;42.91
11017;BME280;54687;50.800;6.772;2023-03-16T11:34:20;61000.69;;;-144.06;42.70
11017;BME280;54687;50.800;6.772;2023-03-16T11:36:52;61048.88;;;-144.06;43.09
11017;BME280;54687;50.800;6.772;2023-03-16T11:39:29;61034.22;;;-144.06;42.29
11017;BME280;54687;50.800;6.772;2023-03-16T11:44:48;61048.88;;;-144.06;41.79
11017;BME280;54687;50.800;6.772;2023-03-16T11:47:36;60990.19;;;-144.06;42.15
11017;BME280;54687;50.800;6.772;2023-03-16T11:50:13;61004.88;;;-144.06;41.54
11017;BME280;54687;50.800;6.772;2023-03-16T11:52:48;61021.63;;;-144.06;41.90
11017;BME280;54687;50.800;6.772;2023-03-16T11:55:24;61040.50;;;-144.06;42.01
11017;BME280;54687;50.800;6.772;2023-03-16T11:58:02;61038.41;;;-144.06;41.34
11017;BME280;54687;50.800;6.772;2023-03-16T12:00:40;61040.50;;;-144.06;41.96
11017;BME280;54687;50.800;6.772;2023-03-16T12:03:48;61013.25;;;-144.06;41.29
11017;BME280;54687;50.800;6.772;2023-03-16T12:06:29;61027.94;;;-144.06;41.51
11017;BME280;54687;50.800;6.772;2023-03-16T12:09:19;61017.44;;;-144.06;41.82
11017;BME280;54687;50.800;6.772;2023-03-16T12:11:53;60996.50;;;-144.06;41.21
11017;BME280;54687;50.800;6.772;2023-03-16T12:14:26;61023.75;;;-144.06;40.70
11017;BME280;54687;50.800;6.772;2023-03-16T12:16:55;61004.88;;;-144.06;40.35
11017;BME280;54687;50.800;6.772;2023-03-16T12:19:39;61044.69;;;-144.06;40.05
11017;BME280;54687;50.800;6.772;2023-03-16T12:22:14;61030.03;;;-144.06;40.44
11017;BME280;54687;50.800;6.772;2023-03-16T12:24:43;61017.44;;;-144.06;39.86
11017;BME280;54687;50.800;6.772;2023-03-16T12:27:14;60990.19;;;-144.06;40.13
11017;BME280;54687;50.800;6.772;2023-03-16T12:29:51;61025.84;;;-144.06;39.23
11017;BME280;54687;50.800;6.772;2023-03-16T12:32:30;60979.72;;;-144.06;38.65
11017;BME280;54687;50.800;6.772;2023-03-16T12:35:07;60988.09;;;-144.06;38.55
11017;BME280;54687;50.800;6.772;2023-03-16T12:37:44;60975.53;;;-144.06;39.01
11017;BME280;54687;50.800;6.772;2023-03-16T12:40:25;60969.22;;;-144.06;38.74
11017;BME280;54687;50.800;6.772;2023-03-16T12:43:11;60971.34;;;-144.06;38.63
11017;BME280;54687;50.800;6.772;2023-03-16T12:45:51;60983.91;;;-144.06;37.97
11017;BME280;54687;50.800;6.772;2023-03-16T12:48:26;60988.09;;;-144.06;38.44
11017;BME280;54687;50.800;6.772;2023-03-16T12:50:57;60933.59;;;-144.06;38.67
11017;BME280;54687;50.800;6.772;2023-03-16T12:53:27;60979.72;;;-144.06;38.54